createdAt,value
2024-04-17T00:02:35.134Z,10.70
2024-04-17T00:05:36.886Z,10.70
2024-04-17T00:08:38.659Z,10.70
2024-04-17T00:11:40.431Z,10.70
2024-04-17T00:14:42.253Z,10.70
2024-04-17T00:17:44.075Z,10.70
2024-04-17T00:20:46.014Z,10.70
2024-04-17T00:23:47.670Z,10.70
2024-04-17T00:26:49.393Z,10.70
2024-04-17T00:29:54.052Z,10.70
2024-04-17T00:32:56.438Z,10.70
2024-04-17T00:35:58.229Z,10.70
2024-04-17T00:39:00.063Z,10.70
2024-04-17T00:42:01.874Z,10.70
2024-04-17T00:45:03.856Z,10.70
2024-04-17T00:48:05.712Z,10.70
2024-04-17T00:51:07.528Z,10.70
2024-04-17T00:54:09.292Z,10.70
2024-04-17T00:57:11.122Z,10.60
2024-04-17T01:00:12.837Z,10.70
2024-04-17T01:03:14.971Z,10.60
2024-04-17T01:06:16.732Z,10.60
2024-04-17T01:09:18.430Z,10.60
2024-04-17T01:12:20.152Z,10.70
2024-04-17T01:15:21.909Z,10.70
2024-04-17T01:18:23.744Z,10.60
2024-04-17T01:21:25.642Z,10.60
2024-04-17T01:24:27.379Z,10.60
2024-04-17T01:27:29.104Z,10.60
2024-04-17T01:30:30.821Z,10.60
2024-04-17T01:33:32.586Z,10.60
2024-04-17T01:36:34.445Z,10.60
2024-04-17T01:39:36.164Z,10.60
2024-04-17T01:42:37.879Z,10.60
2024-04-17T01:45:39.707Z,10.50
2024-04-17T01:48:41.512Z,10.50
2024-04-17T01:51:43.236Z,10.50
2024-04-17T01:54:44.902Z,10.50
2024-04-17T01:57:46.843Z,10.50
2024-04-17T02:00:48.576Z,10.40
2024-04-17T02:03:50.526Z,10.40
2024-04-17T02:06:52.297Z,10.40
2024-04-17T02:09:56.643Z,10.40
2024-04-17T02:12:58.476Z,10.40
2024-04-17T02:16:00.184Z,10.40
2024-04-17T02:19:01.948Z,10.40
2024-04-17T02:22:06.997Z,10.30
2024-04-17T02:25:08.734Z,10.40
2024-04-17T02:28:10.559Z,10.40
2024-04-17T02:31:12.314Z,10.30
2024-04-17T02:34:15.826Z,10.30
2024-04-17T02:37:17.578Z,10.30
2024-04-17T02:40:19.479Z,10.30
2024-04-17T02:43:21.205Z,10.20
2024-04-17T02:46:23.157Z,10.30
2024-04-17T02:49:25.001Z,10.30
2024-04-17T02:52:26.788Z,10.20
2024-04-17T02:55:28.648Z,10.20
2024-04-17T02:58:30.451Z,10.20
2024-04-17T03:01:32.220Z,10.20
2024-04-17T03:04:34.124Z,10.10
2024-04-17T03:07:35.931Z,10.10
2024-04-17T03:10:37.754Z,10.10
2024-04-17T03:13:39.574Z,10.10
2024-04-17T03:16:41.372Z,10.10
2024-04-17T03:19:43.248Z,10.10
2024-04-17T03:22:45.114Z,10.10
2024-04-17T03:25:46.901Z,10.10
2024-04-17T03:28:48.726Z,10.00
2024-04-17T03:31:50.588Z,10.00
2024-04-17T03:34:52.423Z,10.00
2024-04-17T03:37:54.218Z,10.00
2024-04-17T03:40:56.200Z,10.00
2024-04-17T03:43:58.028Z,10.00
2024-04-17T03:47:00.032Z,9.90
2024-04-17T03:50:04.882Z,9.90
2024-04-17T03:53:09.526Z,9.90
2024-04-17T03:56:11.228Z,9.90
2024-04-17T03:59:13.035Z,9.80
2024-04-17T04:02:14.905Z,9.80
2024-04-17T04:05:16.726Z,9.80
2024-04-17T04:08:18.504Z,9.80
2024-04-17T04:11:20.375Z,9.80
2024-04-17T04:14:22.184Z,9.80
2024-04-17T04:17:24.027Z,9.80
2024-04-17T04:20:25.867Z,9.80
2024-04-17T04:23:27.609Z,9.80
2024-04-17T04:26:32.219Z,9.80
2024-04-17T04:29:33.970Z,9.80
2024-04-17T04:32:35.767Z,9.70
2024-04-17T04:35:37.590Z,9.80
2024-04-17T04:38:39.322Z,9.70
2024-04-17T04:41:41.062Z,9.70
2024-04-17T04:44:43.117Z,9.70
2024-04-17T04:47:44.990Z,9.70
2024-04-17T04:50:46.866Z,9.70
2024-04-17T04:53:48.602Z,9.70
2024-04-17T04:56:50.407Z,9.60
2024-04-17T04:59:52.153Z,9.60
2024-04-17T05:02:53.993Z,9.60
2024-04-17T05:05:55.723Z,9.70
2024-04-17T05:08:57.586Z,9.70
2024-04-17T05:11:59.417Z,9.60
2024-04-17T05:15:01.150Z,9.60
2024-04-17T05:18:03.333Z,9.70
2024-04-17T05:21:05.153Z,9.70
2024-04-17T05:24:06.903Z,9.70
2024-04-17T05:27:08.640Z,9.70
2024-04-17T05:30:10.368Z,9.70
2024-04-17T05:33:14.558Z,9.70
2024-04-17T05:36:16.492Z,9.70
2024-04-17T05:39:18.229Z,9.70
2024-04-17T05:42:20.059Z,9.70
2024-04-17T05:45:21.762Z,9.70
2024-04-17T05:48:23.812Z,9.70
2024-04-17T05:51:25.831Z,9.60
2024-04-17T05:54:27.599Z,9.70
2024-04-17T05:57:29.345Z,9.70
2024-04-17T06:00:31.321Z,9.70
2024-04-17T06:03:33.165Z,9.70
2024-04-17T06:06:34.867Z,9.80
2024-04-17T06:09:39.612Z,9.80
2024-04-17T06:12:41.335Z,9.80
2024-04-17T06:15:43.082Z,9.80
2024-04-17T06:18:44.956Z,9.80
2024-04-17T06:21:46.823Z,9.80
2024-04-17T06:24:48.576Z,9.80
2024-04-17T06:27:50.389Z,9.80
2024-04-17T06:30:52.134Z,9.80
2024-04-17T06:33:53.912Z,9.80
2024-04-17T06:36:55.844Z,9.80
2024-04-17T06:39:58.717Z,9.90
2024-04-17T06:43:00.482Z,9.80
2024-04-17T06:46:03.290Z,9.90
2024-04-17T06:49:05.040Z,9.90
2024-04-17T06:52:06.891Z,10.00
2024-04-17T06:55:08.705Z,10.00
2024-04-17T06:58:10.470Z,10.00
2024-04-17T07:01:16.533Z,10.00
2024-04-17T07:04:18.372Z,10.00
2024-04-17T07:07:20.423Z,10.00
2024-04-17T07:10:22.217Z,10.10
2024-04-17T07:13:23.964Z,10.10
2024-04-17T07:16:25.788Z,10.10
2024-04-17T07:19:30.814Z,10.10
2024-04-17T07:22:32.732Z,10.10
2024-04-17T07:25:34.637Z,10.20
2024-04-17T07:28:36.486Z,10.20
2024-04-17T07:31:38.377Z,10.20
2024-04-17T07:34:40.268Z,10.20
2024-04-17T07:37:42.075Z,10.30
2024-04-17T07:40:43.791Z,10.30
2024-04-17T07:43:45.736Z,10.30
2024-04-17T07:46:47.546Z,10.30
2024-04-17T07:49:52.641Z,10.30
2024-04-17T07:52:54.817Z,10.30
2024-04-17T07:55:59.743Z,10.40
2024-04-17T07:59:01.605Z,10.30
2024-04-17T08:02:03.446Z,10.30
2024-04-17T08:05:05.299Z,10.40
2024-04-17T08:08:07.100Z,10.40
2024-04-17T08:11:08.984Z,10.40
2024-04-17T08:14:10.796Z,10.40
2024-04-17T08:17:12.607Z,10.40
2024-04-17T08:20:14.636Z,10.50
2024-04-17T08:23:16.478Z,10.50
2024-04-17T08:26:18.260Z,10.50
2024-04-17T08:29:20.215Z,10.50
2024-04-17T08:32:21.980Z,10.50
2024-04-17T08:35:23.733Z,10.50
2024-04-17T08:38:25.732Z,10.50
2024-04-17T08:41:30.236Z,10.50
2024-04-17T08:44:34.210Z,10.60
2024-04-17T08:47:36.134Z,10.60
2024-04-17T08:50:38.524Z,10.60
2024-04-17T08:53:40.366Z,10.60
2024-04-17T08:56:42.196Z,10.60
2024-04-17T08:59:46.538Z,10.70
2024-04-17T09:02:49.136Z,10.70
2024-04-17T09:05:52.731Z,10.70
2024-04-17T09:08:58.332Z,10.70
2024-04-17T09:12:00.145Z,10.70
2024-04-17T09:15:01.952Z,10.70
2024-04-17T09:18:06.751Z,10.80
2024-04-17T09:21:08.627Z,10.80
2024-04-17T09:24:10.384Z,10.80
2024-04-17T09:27:12.180Z,10.80
2024-04-17T09:30:14.074Z,10.80
2024-04-17T09:33:18.767Z,10.90
2024-04-17T09:36:20.623Z,10.90
2024-04-17T09:39:22.341Z,10.90
2024-04-17T09:42:27.659Z,10.80
2024-04-17T09:45:29.497Z,10.90
2024-04-17T09:48:31.627Z,10.90
2024-04-17T09:51:33.516Z,10.90
2024-04-17T09:54:38.599Z,10.90
2024-04-17T09:57:40.355Z,11.00
2024-04-17T10:00:42.258Z,11.00
2024-04-17T10:03:44.159Z,11.00
2024-04-17T10:06:48.673Z,11.00
2024-04-17T10:09:50.404Z,11.10
2024-04-17T10:12:55.235Z,11.10
2024-04-17T10:15:56.940Z,11.10
2024-04-17T10:18:58.837Z,11.10
2024-04-17T10:22:03.032Z,11.10
2024-04-17T10:25:04.750Z,11.20
2024-04-17T10:28:06.530Z,11.20
2024-04-17T10:31:09.398Z,11.20
2024-04-17T10:34:11.123Z,11.30
2024-04-17T10:37:12.848Z,11.30
2024-04-17T10:40:14.766Z,11.40
2024-04-17T10:43:16.536Z,11.40
2024-04-17T10:46:18.255Z,11.40
2024-04-17T10:49:19.959Z,11.40
2024-04-17T10:52:21.667Z,11.40
2024-04-17T10:55:23.387Z,11.40
2024-04-17T10:58:25.131Z,11.40
2024-04-17T11:01:26.897Z,11.40
2024-04-17T11:04:28.765Z,11.50
2024-04-17T11:07:33.229Z,11.50
2024-04-17T11:10:35.465Z,11.60
2024-04-17T11:13:37.193Z,11.60
2024-04-17T11:16:38.952Z,11.60
2024-04-17T11:19:40.888Z,11.60
2024-04-17T11:22:42.800Z,11.60
2024-04-17T11:25:44.585Z,11.70
2024-04-17T11:28:48.612Z,11.60
2024-04-17T11:31:52.656Z,11.60
2024-04-17T11:34:54.456Z,11.70
2024-04-17T11:37:56.301Z,11.70
2024-04-17T11:40:58.167Z,11.70
2024-04-17T11:44:01.798Z,11.70
2024-04-17T11:47:03.635Z,11.70
2024-04-17T11:50:08.688Z,11.70
2024-04-17T11:53:10.590Z,11.60
2024-04-17T11:56:12.442Z,11.60
2024-04-17T11:59:14.228Z,11.60
2024-04-17T12:02:16.036Z,11.60
2024-04-17T12:05:18.096Z,11.50
2024-04-17T12:08:19.894Z,11.50
2024-04-17T12:11:21.796Z,11.50
2024-04-17T12:14:23.602Z,11.50
2024-04-17T12:17:25.486Z,11.50
2024-04-17T12:20:27.244Z,11.50
2024-04-17T12:23:29.010Z,11.50
2024-04-17T12:26:30.723Z,11.60
2024-04-17T12:29:32.405Z,11.70
2024-04-17T12:32:34.253Z,11.70
2024-04-17T12:35:35.996Z,11.80
2024-04-17T12:38:37.716Z,11.80
2024-04-17T12:41:39.477Z,11.90
2024-04-17T12:44:41.220Z,11.90
2024-04-17T12:47:43.026Z,12.00
2024-04-17T12:50:44.772Z,12.00
2024-04-17T12:53:46.542Z,12.10
2024-04-17T12:56:48.287Z,12.10
2024-04-17T12:59:50.006Z,12.10
2024-04-17T13:02:51.832Z,12.20
2024-04-17T13:05:53.571Z,12.20
2024-04-17T13:08:55.334Z,12.30
2024-04-17T13:11:57.137Z,12.30
2024-04-17T13:15:00.026Z,12.30
2024-04-17T13:18:01.851Z,12.30
2024-04-17T13:21:03.557Z,12.40
2024-04-17T13:24:05.536Z,12.30
2024-04-17T13:27:10.135Z,12.30
2024-04-17T13:30:11.893Z,12.20
2024-04-17T13:33:13.879Z,12.20
2024-04-17T13:36:15.711Z,12.10
2024-04-17T13:39:18.035Z,12.10
2024-04-17T13:42:19.743Z,12.00
2024-04-17T13:45:21.579Z,12.00
2024-04-17T13:48:23.487Z,12.00
2024-04-17T13:51:26.400Z,12.00
2024-04-17T13:54:28.134Z,12.00
2024-04-17T13:57:29.944Z,12.00
2024-04-17T14:00:32.019Z,12.00
2024-04-17T14:03:33.849Z,12.10
2024-04-17T14:06:35.801Z,12.10
2024-04-17T14:09:37.618Z,12.10
2024-04-17T14:12:42.226Z,12.10
2024-04-17T14:15:44.143Z,12.00
2024-04-17T14:18:46.054Z,12.00
2024-04-17T14:21:48.003Z,12.00
2024-04-17T14:24:49.923Z,12.00
2024-04-17T14:27:51.679Z,12.00
2024-04-17T14:30:53.462Z,12.00
2024-04-17T14:33:55.265Z,11.90
2024-04-17T14:36:57.028Z,11.90
2024-04-17T14:39:58.751Z,11.90
2024-04-17T14:43:00.455Z,11.90
2024-04-17T14:46:02.295Z,11.90
2024-04-17T14:49:04.195Z,11.90
2024-04-17T14:52:08.673Z,11.90
2024-04-17T14:55:10.398Z,11.90
2024-04-17T14:58:12.272Z,11.90
2024-04-17T15:01:14.176Z,11.90
2024-04-17T15:04:16.175Z,11.90
2024-04-17T15:07:17.993Z,11.90
2024-04-17T15:10:19.762Z,11.90
2024-04-17T15:13:21.518Z,11.90
2024-04-17T15:16:23.231Z,11.90
2024-04-17T15:19:25.058Z,11.90
2024-04-17T15:22:26.861Z,11.80
2024-04-17T15:25:29.926Z,11.90
2024-04-17T15:31:57.816Z,12.00
2024-04-17T15:34:59.650Z,12.00
2024-04-17T15:38:01.483Z,12.00
2024-04-17T15:41:03.292Z,12.00
2024-04-17T15:44:05.085Z,11.90
2024-04-17T15:47:06.783Z,11.90
2024-04-17T15:50:08.808Z,11.90
2024-04-17T15:53:10.575Z,11.90
2024-04-17T15:56:12.549Z,11.90
2024-04-17T15:59:14.271Z,11.80
2024-04-17T16:02:15.967Z,11.80
2024-04-17T16:05:17.726Z,11.80
2024-04-17T16:08:19.449Z,11.80
2024-04-17T16:11:21.708Z,11.80
2024-04-17T16:14:23.739Z,11.80
2024-04-17T16:17:25.501Z,11.80
2024-04-17T16:20:30.293Z,11.80
2024-04-17T16:23:32.230Z,11.80
2024-04-17T16:26:34.053Z,11.80
2024-04-17T16:29:35.902Z,11.80
2024-04-17T16:32:37.907Z,11.80
2024-04-17T16:35:39.754Z,11.80
2024-04-17T16:38:41.495Z,11.80
2024-04-17T16:41:43.284Z,11.80
2024-04-17T16:44:45.059Z,11.80
2024-04-17T16:47:46.892Z,11.80
2024-04-17T16:50:48.690Z,11.80
2024-04-17T16:53:50.444Z,11.70
2024-04-17T16:56:52.189Z,11.70
2024-04-17T16:59:53.909Z,11.70
2024-04-17T17:02:55.844Z,11.70
2024-04-17T17:05:57.599Z,11.70
2024-04-17T17:08:59.310Z,11.70
2024-04-17T17:12:03.999Z,11.70
2024-04-17T17:15:05.894Z,11.70
2024-04-17T17:18:12.509Z,11.70
2024-04-17T17:21:15.569Z,11.70
2024-04-17T17:24:20.353Z,11.70
2024-04-17T17:27:22.168Z,11.50
2024-04-17T17:30:23.941Z,11.70
2024-04-17T17:33:25.949Z,11.70
2024-04-17T17:36:30.717Z,11.70
2024-04-17T17:39:35.050Z,11.70
2024-04-17T17:42:36.848Z,11.60
2024-04-17T17:45:38.701Z,11.60
2024-04-17T17:48:41.773Z,11.60
2024-04-17T17:51:44.038Z,11.60
2024-04-17T17:54:46.073Z,11.60
2024-04-17T17:57:49.940Z,11.60
2024-04-17T18:00:51.952Z,11.60
2024-04-17T18:03:55.039Z,11.60
2024-04-17T18:06:57.073Z,11.60
2024-04-17T18:09:58.825Z,11.60
2024-04-17T18:13:03.259Z,11.60
2024-04-17T18:16:11.976Z,11.60
2024-04-17T18:19:22.115Z,11.60
2024-04-17T18:22:29.143Z,11.60
2024-04-17T18:25:30.912Z,11.60
2024-04-17T18:28:39.824Z,11.60
2024-04-17T18:31:41.737Z,11.60
2024-04-17T18:34:44.977Z,11.50
2024-04-17T18:37:46.795Z,11.60
2024-04-17T18:40:48.486Z,11.50
2024-04-17T18:43:50.259Z,11.50
2024-04-17T18:46:54.616Z,11.50
2024-04-17T18:49:56.369Z,11.50
2024-04-17T18:52:58.198Z,11.50
2024-04-17T18:55:59.952Z,11.50
2024-04-17T18:59:01.734Z,11.50
2024-04-17T19:02:03.537Z,11.50
2024-04-17T19:05:05.300Z,11.50
2024-04-17T19:08:10.057Z,11.50
2024-04-17T19:11:12.023Z,11.50
2024-04-17T19:14:13.862Z,11.50
2024-04-17T19:17:15.723Z,11.50
2024-04-17T19:20:17.748Z,11.50
2024-04-17T19:23:19.721Z,11.50
2024-04-17T19:26:21.654Z,11.40
2024-04-17T19:29:40.915Z,11.40
2024-04-17T19:32:45.397Z,11.40
2024-04-17T19:35:47.317Z,11.40
2024-04-17T19:38:52.626Z,11.50
2024-04-17T19:42:14.834Z,11.50
2024-04-17T19:45:23.033Z,11.40
2024-04-17T19:48:24.858Z,11.40
2024-04-17T19:51:29.023Z,11.40
2024-04-17T19:54:34.961Z,11.40
2024-04-17T19:57:38.595Z,11.40
2024-04-17T20:00:41.538Z,11.40
2024-04-17T20:03:43.653Z,11.40
2024-04-17T20:06:45.800Z,11.40
2024-04-17T20:09:47.678Z,11.40
2024-04-17T20:12:49.481Z,11.40
2024-04-17T20:15:51.259Z,11.40
2024-04-17T20:18:53.284Z,11.40
2024-04-17T20:25:21.259Z,11.40
2024-04-17T20:28:23.180Z,11.40
2024-04-17T20:31:25.052Z,11.40
2024-04-17T20:34:26.994Z,11.40
2024-04-17T20:37:30.211Z,11.40
2024-04-17T20:40:32.020Z,11.40
2024-04-17T20:43:39.992Z,11.40
2024-04-17T20:46:41.764Z,11.40
2024-04-17T20:49:43.513Z,11.30
2024-04-17T20:52:48.054Z,11.40
2024-04-17T20:55:49.976Z,11.40
2024-04-17T20:58:52.136Z,11.40
2024-04-17T21:01:53.917Z,11.40
2024-04-17T21:04:58.903Z,11.30
2024-04-17T21:08:00.730Z,11.30
2024-04-17T21:11:02.566Z,11.30
2024-04-17T21:14:04.450Z,11.30
2024-04-17T21:17:08.923Z,11.30
2024-04-17T21:20:10.770Z,11.30
2024-04-17T21:23:12.662Z,11.30
2024-04-17T21:26:14.384Z,11.30
2024-04-17T21:32:41.720Z,11.30
2024-04-17T21:35:43.516Z,11.20
2024-04-17T21:38:45.463Z,11.20
2024-04-17T21:41:47.257Z,11.20
2024-04-17T21:44:48.997Z,11.20
2024-04-17T21:47:50.981Z,11.20
2024-04-17T21:50:52.770Z,11.20
2024-04-17T21:53:54.564Z,11.20
2024-04-17T21:56:56.255Z,11.20
2024-04-17T21:59:58.012Z,11.20
2024-04-17T22:02:59.785Z,11.20
2024-04-17T22:06:01.966Z,11.20
2024-04-17T22:09:12.119Z,11.20
2024-04-17T22:12:13.854Z,11.20
2024-04-17T22:15:15.707Z,11.20
2024-04-17T22:18:20.529Z,11.20
2024-04-17T22:21:22.399Z,11.20
2024-04-17T22:24:24.195Z,11.10
2024-04-17T22:27:25.958Z,11.10
2024-04-17T22:30:27.730Z,11.10
2024-04-17T22:33:29.452Z,11.10
2024-04-17T22:36:31.377Z,11.10
2024-04-17T22:39:33.207Z,11.10
2024-04-17T22:42:37.024Z,11.10
2024-04-17T22:45:38.797Z,11.10
2024-04-17T22:48:40.601Z,11.10
2024-04-17T22:51:43.079Z,11.10
2024-04-17T22:54:45.891Z,11.10
2024-04-17T22:57:47.731Z,11.20
2024-04-17T23:00:49.674Z,11.10
2024-04-17T23:03:51.583Z,11.10
2024-04-17T23:07:00.994Z,11.10
2024-04-17T23:10:03.840Z,11.10
2024-04-17T23:13:05.618Z,11.10
2024-04-17T23:16:10.226Z,11.10
2024-04-17T23:19:17.097Z,11.10
2024-04-17T23:22:25.451Z,11.00
2024-04-17T23:25:29.767Z,11.00
2024-04-17T23:28:32.116Z,11.00
2024-04-17T23:31:35.027Z,11.00
2024-04-17T23:34:36.842Z,11.00
2024-04-17T23:37:38.620Z,11.00
2024-04-17T23:40:40.533Z,11.00
2024-04-17T23:43:42.356Z,11.00
2024-04-17T23:46:44.151Z,11.00
2024-04-17T23:49:45.923Z,10.90
2024-04-17T23:52:47.657Z,10.90
2024-04-17T23:55:49.420Z,10.90
2024-04-17T23:58:51.261Z,10.90
